Time;durP1;ratioP1;P1;durP2;ratioP2;P2;SDS_P1;SDS_P2;PMS_P1;PMS_P2;Temp;Humidity;BMP_temperature;BMP_pressure;BME280_temperature;BME280_humidity;BME280_pressure;Samples;Min_cycle;Max_cycle;Signal;HPM_P1;HPM_P2
2023/07/14 00:00:16;;;;;;;4.07;2.10;;;16.10;6.60;;;;;;4994283;28;20987;-68
2023/07/14 00:02:43;;;;;;;15.50;2.33;;;16.00;6.80;;;;;;4993684;28;20494;-68
2023/07/14 00:05:15;;;;;;;3.60;2.00;;;16.00;6.50;;;;;;4993951;28;20415;-68
2023/07/14 00:07:40;;;;;;;2.33;1.80;;;16.00;6.70;;;;;;4992536;28;20431;-69
2023/07/14 00:10:15;;;;;;;3.13;1.60;;;15.90;6.60;;;;;;4993897;28;20422;-68
2023/07/14 00:12:41;;;;;;;3.57;2.07;;;15.90;7.40;;;;;;4993259;28;20502;-69
2023/07/14 00:15:07;;;;;;;4.30;1.83;;;15.80;7.00;;;;;;4993755;28;20422;-70
2023/07/14 00:17:32;;;;;;;3.80;2.43;;;15.80;8.20;;;;;;4993819;28;20602;-69
2023/07/14 00:19:59;;;;;;;4.37;2.10;;;15.70;7.70;;;;;;4993617;28;20777;-68
2023/07/14 00:22:25;;;;;;;7.73;2.00;;;15.70;6.90;;;;;;4993242;28;20735;-68
2023/07/14 00:24:51;;;;;;;3.33;2.07;;;15.70;6.30;;;;;;4993161;28;20422;-69
2023/07/14 00:27:19;;;;;;;2.40;1.90;;;15.80;6.10;;;;;;4992283;28;20424;-68
2023/07/14 00:29:45;;;;;;;2.83;1.67;;;15.80;8.00;;;;;;4993905;28;20181;-69
2023/07/14 00:32:16;;;;;;;4.20;2.50;;;15.90;6.60;;;;;;4993365;28;20450;-69
2023/07/14 00:34:42;;;;;;;3.60;2.20;;;15.90;6.90;;;;;;4993317;28;20431;-68
2023/07/14 00:37:08;;;;;;;5.53;2.00;;;15.80;6.60;;;;;;4993365;28;21224;-70
2023/07/14 00:39:34;;;;;;;4.20;2.10;;;15.80;6.60;;;;;;4993227;28;20459;-68
2023/07/14 00:42:00;;;;;;;4.23;2.20;;;15.70;7.50;;;;;;4992977;28;20444;-69
2023/07/14 00:44:26;;;;;;;4.10;2.80;;;15.70;7.80;;;;;;4991933;28;20212;-68
2023/07/14 00:46:52;;;;;;;7.40;2.73;;;15.60;8.30;;;;;;4991993;28;20498;-68
2023/07/14 00:49:35;;;;;;;2.43;2.00;;;15.60;8.60;;;;;;4992191;28;20521;-69
2023/07/14 00:52:19;;;;;;;2.60;1.70;;;15.50;9.00;;;;;;4992797;28;20225;-68
2023/07/14 00:54:51;;;;;;;3.53;2.80;;;15.50;8.70;;;;;;4993031;28;20896;-69
2023/07/14 00:57:17;;;;;;;3.43;2.23;;;15.50;8.80;;;;;;4993348;28;20423;-69
2023/07/14 00:59:43;;;;;;;3.73;2.13;;;15.40;9.40;;;;;;4993090;28;20425;-68
2023/07/14 01:02:11;;;;;;;8.37;3.00;;;15.30;8.80;;;;;;4992638;28;20557;-70
2023/07/14 01:04:39;;;;;;;2.47;1.90;;;15.30;9.90;;;;;;4992617;28;20282;-68
2023/07/14 01:07:05;;;;;;;3.50;1.60;;;15.30;9.60;;;;;;4993067;28;20509;-68
2023/07/14 01:09:32;;;;;;;2.10;1.53;;;15.20;9.20;;;;;;4992860;28;20412;-68
2023/07/14 01:12:00;;;;;;;2.90;1.97;;;15.30;9.50;;;;;;4992576;28;20453;-69
2023/07/14 01:14:34;;;;;;;4.53;2.20;;;15.20;9.90;;;;;;4992706;28;20407;-69
2023/07/14 01:17:01;;;;;;;5.07;2.73;;;15.20;9.70;;;;;;4992744;28;20872;-68
2023/07/14 01:19:44;;;;;;;2.53;2.00;;;15.20;9.80;;;;;;4992756;28;20522;-68
2023/07/14 01:22:24;;;;;;;3.60;2.20;;;15.20;10.60;;;;;;4991158;28;20467;-69
2023/07/14 01:25:17;;;;;;;4.00;2.30;;;15.20;10.20;;;;;;4992549;28;20434;-69
2023/07/14 01:27:46;;;;;;;5.27;2.80;;;15.10;10.40;;;;;;4992572;28;20935;-69
2023/07/14 01:30:12;;;;;;;4.50;2.33;;;15.10;10.90;;;;;;4992505;28;20743;-70
2023/07/14 01:32:48;;;;;;;2.80;1.80;;;15.00;10.60;;;;;;4991983;28;20521;-68
2023/07/14 01:35:16;;;;;;;4.13;2.00;;;15.00;11.30;;;;;;4991012;28;20432;-68
2023/07/14 01:37:42;;;;;;;2.73;2.10;;;15.10;9.90;;;;;;4992443;28;20701;-69
2023/07/14 01:40:14;;;;;;;3.03;1.90;;;15.10;10.90;;;;;;4992248;28;20421;-69
2023/07/14 01:42:42;;;;;;;4.60;2.30;;;15.10;9.70;;;;;;4990723;28;20468;-70
2023/07/14 01:45:13;;;;;;;4.20;1.60;;;15.20;10.60;;;;;;4992236;28;20422;-68
2023/07/14 01:47:42;;;;;;;2.97;2.23;;;15.20;9.60;;;;;;4991931;28;20428;-68
2023/07/14 01:50:25;;;;;;;4.53;2.00;;;15.30;8.90;;;;;;4992250;28;20417;-68
2023/07/14 01:52:54;;;;;;;3.20;2.03;;;15.40;9.00;;;;;;4991905;28;20479;-69
2023/07/14 01:55:22;;;;;;;2.17;1.63;;;15.40;9.10;;;;;;4990888;28;20422;-69
2023/07/14 01:57:53;;;;;;;2.50;2.00;;;15.40;9.60;;;;;;4992343;28;20412;-69
2023/07/14 02:00:19;;;;;;;6.60;2.03;;;15.40;8.90;;;;;;4994809;28;20429;-69
2023/07/14 02:02:46;;;;;;;3.80;2.23;;;15.40;8.90;;;;;;4996040;28;20467;-69
2023/07/14 02:05:14;;;;;;;3.60;2.00;;;15.30;9.40;;;;;;4996316;28;20416;-69
2023/07/14 02:07:40;;;;;;;2.70;2.40;;;15.30;9.50;;;;;;4996063;28;20462;-69
2023/07/14 02:10:15;;;;;;;4.30;1.50;;;15.30;9.90;;;;;;4996161;28;20428;-69
2023/07/14 02:12:44;;;;;;;2.67;1.80;;;15.20;10.10;;;;;;4996161;28;20531;-70
2023/07/14 02:15:13;;;;;;;9.23;2.13;;;15.20;9.70;;;;;;4995693;28;20511;-70
2023/07/14 02:17:39;;;;;;;3.87;2.00;;;15.20;9.90;;;;;;4995688;28;20430;-70
2023/07/14 02:20:13;;;;;;;3.40;2.10;;;15.10;10.10;;;;;;4996138;28;20801;-70
2023/07/14 02:22:42;;;;;;;3.30;1.90;;;15.00;11.50;;;;;;4995540;28;21008;-70
2023/07/14 02:25:14;;;;;;;2.97;2.10;;;14.90;12.40;;;;;;4995963;28;20410;-70
2023/07/14 02:27:43;;;;;;;2.43;1.83;;;14.90;12.20;;;;;;4995682;28;20423;-69
2023/07/14 02:30:15;;;;;;;6.93;2.10;;;14.90;13.00;;;;;;4995236;28;20464;-69
2023/07/14 02:32:47;;;;;;;4.27;2.43;;;14.80;13.00;;;;;;4995135;28;20535;-72
2023/07/14 02:35:43;;;;;;;3.73;2.50;;;14.70;12.90;;;;;;4994385;28;20432;-70
2023/07/14 02:38:13;;;;;;;4.00;2.10;;;14.60;12.80;;;;;;4995461;28;20421;-70
2023/07/14 02:40:44;;;;;;;3.30;2.10;;;14.50;13.30;;;;;;4995491;28;20425;-70
2023/07/14 02:43:15;;;;;;;2.63;1.93;;;14.50;14.10;;;;;;4995063;28;20473;-70
2023/07/14 02:46:06;;;;;;;3.03;2.33;;;14.60;13.80;;;;;;4995380;28;20435;-70
2023/07/14 02:48:37;;;;;;;2.90;2.37;;;14.50;13.90;;;;;;4994123;28;20495;-68
2023/07/14 02:51:03;;;;;;;5.93;2.40;;;14.50;14.50;;;;;;4995316;28;20779;-70
2023/07/14 02:53:28;;;;;;;3.73;2.40;;;14.50;15.00;;;;;;4995137;28;20412;-69
2023/07/14 02:55:54;;;;;;;3.33;2.43;;;14.50;16.20;;;;;;4995282;28;20185;-69
2023/07/14 02:58:20;;;;;;;6.10;2.50;;;14.50;15.20;;;;;;4995288;28;20582;-70
2023/07/14 03:00:45;;;;;;;4.80;1.80;;;14.40;15.80;;;;;;4994919;28;20189;-69
2023/07/14 03:03:11;;;;;;;4.73;2.33;;;14.40;16.30;;;;;;4994757;28;20332;-70
2023/07/14 03:05:36;;;;;;;2.93;2.03;;;14.30;15.50;;;;;;4994963;28;20177;-68
2023/07/14 03:08:07;;;;;;;3.37;2.03;;;14.30;16.30;;;;;;4995390;28;20201;-70
2023/07/14 03:10:33;;;;;;;3.03;2.43;;;14.20;17.00;;;;;;4993952;28;20256;-71
2023/07/14 03:12:59;;;;;;;5.50;2.73;;;14.20;17.00;;;;;;4994391;28;20892;-71
2023/07/14 03:15:25;;;;;;;4.90;2.00;;;14.20;17.00;;;;;;4994836;28;20412;-71
2023/07/14 03:17:51;;;;;;;3.93;1.83;;;14.20;17.00;;;;;;4994639;28;20193;-70
2023/07/14 03:20:17;;;;;;;3.80;2.50;;;14.20;16.90;;;;;;4994750;28;20181;-70
2023/07/14 03:22:43;;;;;;;5.43;4.20;;;14.30;18.00;;;;;;4994588;28;20845;-70
2023/07/14 03:25:09;;;;;;;4.10;2.70;;;14.20;17.70;;;;;;4994671;28;20176;-69
2023/07/14 03:27:35;;;;;;;3.50;2.27;;;14.10;17.90;;;;;;4993557;28;20430;-69
2023/07/14 03:30:01;;;;;;;3.20;2.10;;;14.10;18.40;;;;;;4992584;28;20459;-70
2023/07/14 03:32:27;;;;;;;4.63;2.43;;;14.20;18.70;;;;;;4993486;28;20208;-69
2023/07/14 03:34:52;;;;;;;3.90;2.37;;;14.10;18.70;;;;;;4994460;28;20222;-69
2023/07/14 03:37:18;;;;;;;3.70;2.43;;;14.10;18.80;;;;;;4994597;28;20816;-69
2023/07/14 03:39:44;;;;;;;3.67;2.50;;;14.10;17.50;;;;;;4994597;28;20200;-69
2023/07/14 03:42:09;;;;;;;3.57;2.40;;;14.10;17.10;;;;;;4992918;28;20203;-70
2023/07/14 03:44:35;;;;;;;3.40;2.30;;;14.10;16.90;;;;;;4994773;28;20650;-70
2023/07/14 03:47:03;;;;;;;3.67;2.83;;;14.10;17.40;;;;;;4994880;28;20256;-69
2023/07/14 03:49:29;;;;;;;3.30;2.30;;;14.10;17.20;;;;;;4994770;28;20597;-69
2023/07/14 03:51:55;;;;;;;2.73;2.10;;;14.20;17.00;;;;;;4994149;28;20463;-69
2023/07/14 03:54:20;;;;;;;2.37;2.00;;;14.20;17.00;;;;;;4994658;28;20443;-70
2023/07/14 03:56:46;;;;;;;2.97;1.93;;;14.20;17.00;;;;;;4994527;28;20257;-70
2023/07/14 03:59:13;;;;;;;3.10;2.13;;;14.30;16.20;;;;;;4994392;28;20446;-70
2023/07/14 04:01:39;;;;;;;3.20;1.93;;;14.30;15.90;;;;;;4994076;28;20220;-70
2023/07/14 04:04:05;;;;;;;6.07;2.87;;;14.30;15.90;;;;;;4994336;28;20943;-70
2023/07/14 04:06:30;;;;;;;4.37;2.20;;;14.30;16.00;;;;;;4994385;28;20470;-70
2023/07/14 04:08:59;;;;;;;4.60;2.30;;;14.40;15.40;;;;;;4993988;28;20178;-69
2023/07/14 04:11:24;;;;;;;3.73;2.50;;;14.40;15.20;;;;;;4993706;28;20240;-69
2023/07/14 04:13:50;;;;;;;4.77;2.27;;;14.50;14.70;;;;;;4993556;28;20444;-68
2023/07/14 04:16:15;;;;;;;4.87;2.40;;;14.60;14.90;;;;;;4993696;28;20195;-69
2023/07/14 04:18:42;;;;;;;3.73;2.73;;;14.60;14.90;;;;;;4993782;28;20188;-67
2023/07/14 04:21:11;;;;;;;3.00;2.33;;;14.60;14.90;;;;;;4993839;28;20192;-68
2023/07/14 04:23:40;;;;;;;3.57;2.60;;;14.70;14.80;;;;;;4991629;28;20534;-68
2023/07/14 04:26:12;;;;;;;5.70;2.70;;;14.90;13.80;;;;;;4992279;28;20427;-68
2023/07/14 04:28:38;;;;;;;5.73;2.90;;;14.90;13.20;;;;;;4993470;28;20540;-70
2023/07/14 04:31:04;;;;;;;3.53;1.93;;;14.90;14.00;;;;;;4993226;28;20524;-71
2023/07/14 04:33:30;;;;;;;5.03;2.80;;;15.00;14.30;;;;;;4993603;28;20186;-70
2023/07/14 04:35:56;;;;;;;2.80;2.50;;;15.10;14.20;;;;;;4993043;28;20453;-68
2023/07/14 04:38:23;;;;;;;3.53;3.17;;;15.20;13.90;;;;;;4995157;28;20420;-69
2023/07/14 04:40:50;;;;;;;17.67;3.27;;;15.40;13.40;;;;;;4994913;28;20409;-69
2023/07/14 04:43:17;;;;;;;4.10;2.47;;;15.50;13.40;;;;;;4993855;28;20815;-69
2023/07/14 04:45:45;;;;;;;5.93;3.30;;;15.60;12.60;;;;;;4994443;28;20440;-69
2023/07/14 04:48:17;;;;;;;7.63;3.30;;;15.80;11.80;;;;;;4993857;28;20791;-69
2023/07/14 04:50:46;;;;;;;3.37;2.80;;;16.00;9.70;;;;;;4993947;28;20450;-70
2023/07/14 04:53:13;;;;;;;4.83;2.73;;;16.10;9.40;;;;;;4992984;28;20447;-68
2023/07/14 04:55:40;;;;;;;4.53;3.63;;;16.30;9.30;;;;;;4993124;28;20423;-69
2023/07/14 04:58:07;;;;;;;2.87;2.43;;;16.70;8.50;;;;;;4993083;28;20501;-68
2023/07/14 05:00:34;;;;;;;4.47;3.23;;;16.90;7.90;;;;;;4993358;28;20450;-69
2023/07/14 05:03:00;;;;;;;4.00;3.10;;;17.20;6.30;;;;;;4992933;28;20467;-70
2023/07/14 05:05:26;;;;;;;7.70;3.57;;;17.40;5.80;;;;;;4992834;28;20416;-70
2023/07/14 05:07:52;;;;;;;6.70;3.63;;;17.40;5.50;;;;;;4992906;28;20207;-69
2023/07/14 05:10:20;;;;;;;3.40;2.90;;;17.50;5.10;;;;;;4991400;28;20515;-68
2023/07/14 05:12:49;;;;;;;3.60;2.90;;;17.60;5.10;;;;;;4992228;28;20463;-68
2023/07/14 05:15:14;;;;;;;3.03;2.70;;;17.60;4.30;;;;;;4992527;28;20514;-72
2023/07/14 05:17:41;;;;;;;3.90;3.40;;;17.70;4.50;;;;;;4992653;28;20507;-70
2023/07/14 05:20:10;;;;;;;5.70;3.10;;;17.80;4.50;;;;;;4992460;28;20195;-69
2023/07/14 05:22:36;;;;;;;4.60;3.40;;;17.90;4.10;;;;;;4992290;28;20459;-69
2023/07/14 05:25:03;;;;;;;5.20;3.50;;;18.00;4.40;;;;;;4991184;28;20416;-69
2023/07/14 05:27:29;;;;;;;4.20;3.23;;;18.40;3.00;;;;;;4992062;28;20921;-70
2023/07/14 05:29:55;;;;;;;5.00;3.47;;;18.60;2.00;;;;;;4992687;28;20498;-69
2023/07/14 05:32:21;;;;;;;5.30;3.43;;;18.70;1.50;;;;;;4992043;28;20436;-70
2023/07/14 05:34:48;;;;;;;4.30;3.70;;;18.70;2.10;;;;;;4991874;28;20192;-70
2023/07/14 05:37:14;;;;;;;5.37;3.43;;;18.90;1.00;;;;;;4992429;28;20427;-69
2023/07/14 05:39:40;;;;;;;4.00;3.33;;;18.90;1.00;;;;;;4991060;28;20424;-69
2023/07/14 05:42:06;;;;;;;4.87;3.80;;;19.00;1.00;;;;;;4991906;28;20816;-70
2023/07/14 05:44:31;;;;;;;7.13;3.93;;;19.20;1.00;;;;;;4992692;28;20673;-70
2023/07/14 05:46:57;;;;;;;3.37;2.90;;;19.30;1.00;;;;;;4992067;28;20180;-69
2023/07/14 05:49:23;;;;;;;5.00;4.47;;;19.50;1.00;;;;;;4992416;28;20200;-69
2023/07/14 05:51:51;;;;;;;5.00;4.60;;;20.10;1.00;;;;;;4992043;28;20663;-69
2023/07/14 05:54:16;;;;;;;7.00;4.43;;;21.80;1.00;;;;;;4992393;28;20180;-69
2023/07/14 05:56:42;;;;;;;6.53;5.50;;;23.80;1.00;;;;;;4992327;28;20898;-70
2023/07/14 05:59:08;;;;;;;6.63;4.70;;;25.10;1.00;;;;;;4992000;28;20231;-69
2023/07/14 06:01:33;;;;;;;8.27;5.10;;;25.50;1.00;;;;;;4992755;28;20246;-70
2023/07/14 06:03:59;;;;;;;11.07;4.93;;;25.10;1.00;;;;;;4978327;28;20219;-70
2023/07/14 06:06:26;;;;;;;5.50;5.10;;;26.10;1.00;;;;;;4993852;28;20230;-70
2023/07/14 06:08:53;;;;;;;4.60;4.20;;;27.00;1.00;;;;;;4992044;28;20169;-70
2023/07/14 06:11:19;;;;;;;5.77;5.23;;;27.30;1.00;;;;;;4990737;28;20455;-70
2023/07/14 06:13:45;;;;;;;6.97;5.50;;;27.80;1.00;;;;;;4991859;28;20859;-69
2023/07/14 06:16:10;;;;;;;5.90;5.33;;;28.70;1.00;;;;;;4992007;28;20471;-70
2023/07/14 06:18:36;;;;;;;5.47;5.03;;;27.60;1.00;;;;;;4991920;28;20173;-69
2023/07/14 06:21:02;;;;;;;14.10;5.90;;;27.50;1.00;;;;;;4991801;28;20184;-70
2023/07/14 06:23:28;;;;;;;7.20;4.87;;;27.90;1.00;;;;;;4991400;28;20287;-70
2023/07/14 06:25:54;;;;;;;6.33;5.27;;;26.80;1.00;;;;;;4990556;28;20689;-69
2023/07/14 06:28:20;;;;;;;6.20;5.70;;;26.30;1.00;;;;;;4991827;28;20552;-69
2023/07/14 06:30:46;;;;;;;5.60;5.10;;;27.70;1.00;;;;;;4991655;28;20500;-70
2023/07/14 06:33:12;;;;;;;5.20;4.80;;;29.90;1.00;;;;;;4991449;28;20468;-70
2023/07/14 06:35:40;;;;;;;5.87;5.37;;;30.70;1.00;;;;;;4991686;28;20169;-70
2023/07/14 06:38:08;;;;;;;6.63;6.03;;;31.90;1.00;;;;;;4991812;28;20416;-70
2023/07/14 06:40:33;;;;;;;5.60;5.10;;;33.00;1.00;;;;;;4992368;28;20482;-71
2023/07/14 06:43:00;;;;;;;6.33;5.83;;;34.00;1.00;;;;;;4990484;28;20977;-70
2023/07/14 06:45:27;;;;;;;5.50;5.10;;;34.80;1.00;;;;;;4993035;28;20226;-70
2023/07/14 06:47:52;;;;;;;6.27;5.77;;;33.60;1.00;;;;;;4995827;28;20419;-70
2023/07/14 06:50:18;;;;;;;8.30;6.57;;;34.20;1.00;;;;;;4995356;28;20473;-69
2023/07/14 06:52:45;;;;;;;7.80;4.87;;;35.50;1.00;;;;;;4995145;28;20351;-69
2023/07/14 06:55:10;;;;;;;5.93;5.23;;;35.20;1.00;;;;;;4994154;28;20550;-69
2023/07/14 06:57:36;;;;;;;7.10;5.47;;;34.70;1.00;;;;;;4995423;28;20442;-69
2023/07/14 07:00:05;;;;;;;5.73;5.30;;;33.50;1.00;;;;;;4995160;28;20267;-69
2023/07/14 07:02:31;;;;;;;5.93;5.53;;;33.40;1.00;;;;;;4994719;28;20220;-70
2023/07/14 07:04:56;;;;;;;5.83;5.40;;;34.40;1.00;;;;;;4994696;28;20470;-69
2023/07/14 07:07:22;;;;;;;6.03;5.53;;;35.00;1.00;;;;;;4994730;28;20185;-69
2023/07/14 07:09:47;;;;;;;7.97;5.30;;;34.50;1.00;;;;;;4987292;28;20584;-69
2023/07/14 07:12:13;;;;;;;5.93;5.43;;;35.10;1.00;;;;;;4973670;28;20260;-69
2023/07/14 07:14:38;;;;;;;7.90;7.10;;;33.50;1.00;;;;;;4988125;28;20193;-69
2023/07/14 07:17:04;;;;;;;6.33;5.73;;;33.10;1.00;;;;;;4994644;28;20240;-69
2023/07/14 07:19:32;;;;;;;6.47;6.07;;;32.60;1.00;;;;;;4994653;28;20189;-69
2023/07/14 07:21:58;;;;;;;6.83;6.23;;;32.50;1.00;;;;;;4994413;28;20217;-69
2023/07/14 07:24:24;;;;;;;5.13;4.70;;;32.90;1.00;;;;;;4994575;28;20439;-69
2023/07/14 07:26:50;;;;;;;6.43;5.87;;;33.90;1.00;;;;;;4994720;28;20701;-70
2023/07/14 07:29:16;;;;;;;5.23;4.73;;;33.60;1.00;;;;;;4994202;28;20423;-69
2023/07/14 07:31:41;;;;;;;5.77;5.30;;;34.50;1.00;;;;;;4993829;28;20668;-69
2023/07/14 07:34:08;;;;;;;5.67;5.27;;;34.70;1.00;;;;;;4994053;28;20229;-69
2023/07/14 07:36:34;;;;;;;5.60;5.10;;;35.60;1.00;;;;;;4994865;28;20272;-70
2023/07/14 07:38:59;;;;;;;5.03;4.73;;;36.00;1.00;;;;;;4994406;28;20936;-70
2023/07/14 07:41:26;;;;;;;5.53;4.70;;;37.20;1.00;;;;;;4993451;28;20204;-70
2023/07/14 07:43:52;;;;;;;6.13;5.57;;;37.50;1.00;;;;;;4983080;28;20228;-70
2023/07/14 07:46:21;;;;;;;4.70;4.30;;;37.50;1.00;;;;;;4976252;28;20425;-70
2023/07/14 07:48:46;;;;;;;5.47;5.07;;;39.20;1.00;;;;;;4993384;28;20804;-70
2023/07/14 07:51:13;;;;;;;4.90;4.50;;;37.30;1.00;;;;;;4993434;28;20423;-70
2023/07/14 07:53:39;;;;;;;9.20;4.70;;;37.00;1.00;;;;;;4989084;28;20622;-70
2023/07/14 07:56:05;;;;;;;5.47;5.07;;;36.00;1.00;;;;;;4984073;28;20440;-69
2023/07/14 07:58:31;;;;;;;6.23;5.40;;;35.90;1.00;;;;;;4979559;28;20430;-70
2023/07/14 08:00:59;;;;;;;5.07;4.70;;;35.90;1.00;;;;;;4978902;28;20433;-70
2023/07/14 08:03:24;;;;;;;5.17;4.77;;;36.40;1.00;;;;;;4974297;28;20647;-71
2023/07/14 08:05:50;;;;;;;4.77;4.43;;;36.90;1.00;;;;;;4974803;28;20531;-70
2023/07/14 08:08:16;;;;;;;4.70;4.40;;;37.30;1.00;;;;;;4982977;28;20185;-71
2023/07/14 08:10:45;;;;;;;5.17;4.67;;;38.30;1.00;;;;;;4993758;28;20423;-71
2023/07/14 08:13:11;;;;;;;5.00;4.70;;;37.50;1.00;;;;;;4977809;28;20252;-70
2023/07/14 08:15:37;;;;;;;5.57;4.93;;;38.70;1.00;;;;;;4974034;28;20791;-69
2023/07/14 08:18:04;;;;;;;5.80;4.80;;;38.80;1.00;;;;;;4974341;28;20420;-70
2023/07/14 08:20:30;;;;;;;5.50;5.00;;;38.60;1.00;;;;;;4973697;28;20235;-69
2023/07/14 08:22:56;;;;;;;4.83;4.43;;;37.60;1.00;;;;;;4973841;28;20461;-69
2023/07/14 08:25:22;;;;;;;4.30;4.00;;;35.60;1.00;;;;;;4973655;28;20813;-70
2023/07/14 08:27:49;;;;;;;5.20;4.70;;;35.70;1.00;;;;;;4973873;28;20209;-70
2023/07/14 08:30:14;;;;;;;5.00;4.60;;;35.70;1.00;;;;;;4973752;28;20504;-70
2023/07/14 08:32:40;;;;;;;4.93;4.43;;;35.30;1.00;;;;;;4973655;28;21051;-69
2023/07/14 08:35:06;;;;;;;5.37;4.83;;;34.30;1.00;;;;;;4973790;28;20251;-69
2023/07/14 08:37:32;;;;;;;5.00;4.23;;;33.80;1.00;;;;;;4973814;28;20193;-70
2023/07/14 08:39:58;;;;;;;4.90;4.50;;;34.70;1.00;;;;;;4973506;28;20452;-70
2023/07/14 08:42:38;;;;;;;4.60;4.30;;;35.60;1.00;;;;;;4973002;28;20237;-70
2023/07/14 08:45:16;;;;;;;4.50;4.20;;;35.50;1.00;;;;;;4973401;28;20243;-69
2023/07/14 08:48:15;;;;;;;5.87;4.57;;;35.40;1.00;;;;;;4973582;28;21018;-70
2023/07/14 08:50:42;;;;;;;4.53;4.23;;;35.40;1.00;;;;;;4973519;28;20426;-69
2023/07/14 08:53:20;;;;;;;4.73;4.33;;;35.10;1.00;;;;;;4973104;28;20449;-69
2023/07/14 08:55:45;;;;;;;4.83;4.30;;;34.60;1.00;;;;;;4973478;28;20447;-70
2023/07/14 08:58:19;;;;;;;4.57;4.27;;;33.80;1.00;;;;;;4988195;28;20428;-70
2023/07/14 09:00:52;;;;;;;4.73;4.43;;;33.90;1.00;;;;;;4973389;28;20205;-70
2023/07/14 09:03:35;;;;;;;4.87;4.57;;;33.20;1.00;;;;;;4973350;28;20460;-70
2023/07/14 09:06:09;;;;;;;4.40;3.80;;;33.40;1.00;;;;;;4974277;28;20411;-70
2023/07/14 09:08:35;;;;;;;4.40;4.10;;;33.90;1.00;;;;;;4972720;28;20425;-70
2023/07/14 09:11:19;;;;;;;4.80;4.50;;;34.00;1.00;;;;;;4973775;28;20510;-70
2023/07/14 09:13:59;;;;;;;4.07;3.87;;;33.40;1.00;;;;;;4975563;28;20247;-70
2023/07/14 09:16:31;;;;;;;4.80;4.50;;;33.50;1.00;;;;;;4973925;28;20428;-70
2023/07/14 09:19:32;;;;;;;5.30;4.80;;;33.70;1.00;;;;;;4973451;28;20910;-70
2023/07/14 09:22:21;;;;;;;5.53;4.50;;;34.10;1.00;;;;;;4973205;28;20518;-70
2023/07/14 09:24:58;;;;;;;4.20;3.90;;;33.60;1.00;;;;;;4972944;28;20417;-70
2023/07/14 09:27:29;;;;;;;4.50;4.10;;;33.40;1.00;;;;;;4972671;28;20408;-69
2023/07/14 09:29:57;;;;;;;4.60;4.30;;;32.70;1.00;;;;;;4973012;28;20404;-69
2023/07/14 09:32:22;;;;;;;4.80;4.40;;;32.10;1.00;;;;;;4972489;28;20471;-70
2023/07/14 09:35:00;;;;;;;4.30;4.00;;;31.80;1.00;;;;;;4972905;28;20401;-70
2023/07/14 09:37:42;;;;;;;4.73;4.37;;;31.50;1.00;;;;;;4973000;28;20170;-69
2023/07/14 09:40:19;;;;;;;4.70;4.40;;;31.70;1.00;;;;;;4972872;28;20749;-70
2023/07/14 09:42:54;;;;;;;4.73;4.40;;;31.50;1.00;;;;;;4972339;28;20961;-70
2023/07/14 09:45:23;;;;;;;6.23;4.77;;;31.90;1.00;;;;;;4972539;28;20495;-70
2023/07/14 09:48:08;;;;;;;4.70;4.30;;;31.20;1.00;;;;;;4972552;28;20413;-69
2023/07/14 09:50:39;;;;;;;3.90;3.70;;;31.20;1.00;;;;;;4972807;28;20409;-70
2023/07/14 09:53:07;;;;;;;4.80;4.50;;;30.90;1.00;;;;;;4972473;28;20591;-70
2023/07/14 09:55:55;;;;;;;5.73;4.30;;;30.90;1.00;;;;;;4972389;28;20491;-70
2023/07/14 09:58:23;;;;;;;5.30;4.80;;;31.20;1.00;;;;;;4972367;28;20417;-70
2023/07/14 10:00:52;;;;;;;4.77;4.47;;;31.10;1.00;;;;;;4972378;28;20420;-70
2023/07/14 10:03:19;;;;;;;5.37;5.07;;;30.90;1.00;;;;;;4971903;28;20460;-70
2023/07/14 10:06:11;;;;;;;5.23;4.73;;;30.50;1.00;;;;;;4972171;28;20416;-73
2023/07/14 10:08:59;;;;;;;13.30;4.80;;;30.60;1.00;;;;;;4972665;28;20736;-70
2023/07/14 10:11:37;;;;;;;4.90;4.50;;;30.30;1.00;;;;;;4973026;28;20455;-71
2023/07/14 10:14:27;;;;;;;4.30;4.10;;;30.30;1.00;;;;;;4966236;28;20432;-70
2023/07/14 10:16:58;;;;;;;5.17;4.77;;;30.30;1.00;;;;;;4988104;28;20423;-71
2023/07/14 10:19:49;;;;;;;4.77;4.30;;;30.50;1.00;;;;;;5006927;28;20427;-71
2023/07/14 10:22:18;;;;;;;4.67;4.40;;;30.80;1.00;;;;;;4989625;28;20456;-69
2023/07/14 10:24:54;;;;;;;4.53;4.33;;;30.70;1.00;;;;;;4977802;28;20500;-70
2023/07/14 10:27:25;;;;;;;6.20;4.80;;;30.80;1.00;;;;;;4975719;28;20474;-70
2023/07/14 10:30:13;;;;;;;4.87;4.57;;;30.60;1.00;;;;;;4975786;28;20412;-70
2023/07/14 10:32:48;;;;;;;4.53;4.23;;;30.30;1.00;;;;;;4984340;28;20508;-69
2023/07/14 10:35:35;;;;;;;5.00;4.70;;;30.40;1.00;;;;;;4995129;28;20422;-70
2023/07/14 10:38:16;;;;;;;5.53;5.03;;;30.70;1.00;;;;;;4995902;28;20442;-70
2023/07/14 10:40:54;;;;;;;4.60;4.30;;;30.70;1.00;;;;;;4982725;28;20482;-70
2023/07/14 10:43:24;;;;;;;4.93;4.63;;;30.50;1.00;;;;;;4975768;28;20467;-70
2023/07/14 10:45:56;;;;;;;4.77;4.47;;;30.70;1.00;;;;;;4993860;28;20880;-70
2023/07/14 10:48:30;;;;;;;4.87;4.47;;;30.60;1.00;;;;;;4995333;28;20971;-70
2023/07/14 10:51:01;;;;;;;4.20;3.90;;;30.50;1.00;;;;;;4995604;28;20498;-70
2023/07/14 10:53:32;;;;;;;6.13;5.50;;;30.30;1.00;;;;;;4995063;28;20419;-70
2023/07/14 10:56:01;;;;;;;4.77;4.47;;;30.80;1.00;;;;;;4994416;28;20932;-70
2023/07/14 10:58:38;;;;;;;4.90;4.50;;;31.00;1.00;;;;;;4994740;28;20466;-73
2023/07/14 11:01:32;;;;;;;4.93;4.20;;;31.10;1.00;;;;;;4995173;28;20454;-72
2023/07/14 11:04:06;;;;;;;4.23;3.93;;;31.10;1.00;;;;;;4994969;28;20529;-71
2023/07/14 11:06:34;;;;;;;5.20;4.60;;;30.70;1.00;;;;;;4995211;28;20411;-72
2023/07/14 11:08:59;;;;;;;4.17;3.87;;;31.00;1.00;;;;;;4995030;28;20481;-72
2023/07/14 11:11:33;;;;;;;4.70;4.33;;;31.10;1.00;;;;;;4995843;28;20451;-72
2023/07/14 11:14:17;;;;;;;4.77;4.37;;;31.00;1.00;;;;;;4994489;28;20291;-70
2023/07/14 11:17:00;;;;;;;4.47;4.17;;;31.00;1.00;;;;;;4985818;28;20511;-71
2023/07/14 11:19:34;;;;;;;4.70;4.40;;;30.70;1.00;;;;;;4975924;28;20428;-70
2023/07/14 11:22:16;;;;;;;4.00;3.80;;;30.30;1.00;;;;;;4975474;28;20433;-72
2023/07/14 11:24:59;;;;;;;4.90;4.50;;;30.30;1.00;;;;;;4994813;28;20439;-71
2023/07/14 11:27:38;;;;;;;4.27;3.97;;;30.40;1.00;;;;;;4994843;28;20450;-71
2023/07/14 11:30:12;;;;;;;4.47;4.07;;;30.10;1.00;;;;;;4995223;28;20418;-71
2023/07/14 11:32:53;;;;;;;5.03;4.73;;;30.40;1.00;;;;;;4993786;28;20436;-71
2023/07/14 11:35:33;;;;;;;5.30;5.00;;;30.30;1.00;;;;;;4995033;28;20484;-70
2023/07/14 11:38:24;;;;;;;5.00;4.70;;;29.90;1.00;;;;;;4994419;28;20446;-70
2023/07/14 11:40:52;;;;;;;5.27;4.80;;;29.60;1.00;;;;;;4995011;28;20412;-71
2023/07/14 11:43:22;;;;;;;5.07;4.57;;;29.30;1.00;;;;;;4994810;28;20824;-72
2023/07/14 11:46:03;;;;;;;4.80;4.50;;;29.40;1.00;;;;;;4994794;28;20498;-72
2023/07/14 11:48:59;;;;;;;5.20;4.80;;;29.90;1.00;;;;;;4994327;28;20424;-72
2023/07/14 11:51:44;;;;;;;4.70;4.30;;;30.30;1.00;;;;;;4994140;28;20431;-72
2023/07/14 11:54:40;;;;;;;4.63;4.33;;;30.20;1.00;;;;;;4993903;28;20415;-69
2023/07/14 11:57:12;;;;;;;4.73;4.27;;;30.40;1.00;;;;;;4994015;28;20493;-72
2023/07/14 11:59:53;;;;;;;4.70;4.40;;;30.20;1.00;;;;;;4974179;28;20424;-68
2023/07/14 12:02:38;;;;;;;4.20;3.90;;;30.40;1.00;;;;;;4980136;28;20448;-69
2023/07/14 12:05:27;;;;;;;4.93;4.53;;;30.50;1.00;;;;;;4993447;28;20471;-76
2023/07/14 12:08:05;;;;;;;4.80;4.50;;;30.80;1.00;;;;;;4985707;28;20423;-70
2023/07/14 12:10:42;;;;;;;6.80;4.43;;;30.50;1.00;;;;;;4993729;28;20527;-72
2023/07/14 12:13:16;;;;;;;5.30;4.80;;;30.10;1.00;;;;;;4993230;28;20463;-72
2023/07/14 12:15:44;;;;;;;4.60;4.30;;;30.10;1.00;;;;;;4993253;28;20838;-69
2023/07/14 12:18:30;;;;;;;5.07;4.67;;;30.10;1.00;;;;;;4993785;28;20427;-70
2023/07/14 12:21:42;;;;;;;4.73;4.37;;;30.70;1.00;;;;;;4993884;28;20431;-72
2023/07/14 12:24:18;;;;;;;5.43;4.93;;;31.60;1.00;;;;;;4965208;28;20529;-70
2023/07/14 12:26:52;;;;;;;5.27;4.87;;;31.70;1.00;;;;;;4993246;28;20457;-72
2023/07/14 12:29:20;;;;;;;5.30;4.90;;;32.20;1.00;;;;;;4992819;28;20455;-72
2023/07/14 12:31:51;;;;;;;5.03;4.60;;;31.90;1.00;;;;;;4992922;28;20438;-70
2023/07/14 12:34:18;;;;;;;4.90;4.50;;;31.70;1.00;;;;;;4993071;28;20423;-69
2023/07/14 12:36:44;;;;;;;6.23;5.20;;;31.60;1.00;;;;;;4993253;28;20980;-68
2023/07/14 12:39:10;;;;;;;9.90;4.33;;;31.40;1.00;;;;;;4992503;28;20434;-68
2023/07/14 12:41:39;;;;;;;4.47;4.07;;;31.30;1.00;;;;;;4992580;28;20424;-68
2023/07/14 12:44:07;;;;;;;4.17;3.87;;;31.30;1.00;;;;;;4992275;28;20733;-68
2023/07/14 12:46:35;;;;;;;5.03;4.73;;;31.50;1.00;;;;;;4992182;28;20420;-68
2023/07/14 12:49:09;;;;;;;4.47;4.17;;;31.20;1.00;;;;;;4992742;28;20904;-68
2023/07/14 12:51:36;;;;;;;4.87;4.57;;;31.00;1.00;;;;;;4992424;28;20451;-70
2023/07/14 12:54:13;;;;;;;4.70;4.40;;;30.60;1.00;;;;;;4992421;28;20431;-68
2023/07/14 12:56:38;;;;;;;4.83;4.47;;;30.20;1.00;;;;;;4992260;28;20423;-68
2023/07/14 12:59:09;;;;;;;8.60;5.10;;;29.70;1.00;;;;;;4972079;28;20444;-67
2023/07/14 13:01:35;;;;;;;6.50;4.50;;;29.50;1.00;;;;;;4971369;28;20197;-68
2023/07/14 13:04:04;;;;;;;4.47;4.07;;;29.50;1.00;;;;;;4972843;28;20810;-68
2023/07/14 13:06:29;;;;;;;4.50;4.00;;;29.40;1.00;;;;;;4980218;28;20177;-68
2023/07/14 13:09:08;;;;;;;4.17;3.87;;;29.50;1.00;;;;;;4993041;28;20408;-68
2023/07/14 13:11:38;;;;;;;4.00;3.80;;;29.60;1.00;;;;;;4992234;28;20685;-68